Time,TemperatureF,DewpointF,PressureIn,WindDirection,WindDirectionDegrees,WindSpeedMPH,WindSpeedGustMPH,Humidity,HourlyPrecipIn,Conditions,Clouds,dailyrainin,SoftwareType,DateUTC
2013-01-10 00:02:00,28.0,23.0,30.50,WSW,248,0.0,1.0,81,0.00,,,0.00,,2013-01-10 06:02:00,
2013-01-10 00:12:00,28.0,23.0,30.50,WSW,248,0.0,1.0,81,0.00,,,0.00,,2013-01-10 06:12:00,
2013-01-10 00:22:00,28.0,23.0,30.50,WSW,248,0.0,0.0,82,0.00,,,0.00,,2013-01-10 06:22:00,
2013-01-10 00:32:00,28.0,23.0,30.51,WSW,248,0.0,2.0,82,0.00,,,0.00,,2013-01-10 06:32:00,
2013-01-10 00:42:00,28.0,23.0,30.51,WSW,248,0.0,2.0,82,0.00,,,0.00,,2013-01-10 06:42:00,
2013-01-10 00:52:00,28.0,23.0,30.51,East,90,1.0,7.0,82,0.00,,,0.00,,2013-01-10 06:52:00,
2013-01-10 01:02:00,29.0,24.0,30.50,SSW,201,1.0,3.0,80,0.00,,,0.00,,2013-01-10 07:02:00,
2013-01-10 01:12:00,29.0,24.0,30.50,SSW,201,1.0,3.0,80,0.00,,,0.00,,2013-01-10 07:12:00,
2013-01-10 01:22:00,29.0,24.0,30.49,SSW,201,0.0,2.0,80,0.00,,,0.00,,2013-01-10 07:22:00,
2013-01-10 01:32:00,29.0,24.0,30.49,SSW,201,0.0,2.0,80,0.00,,,0.00,,2013-01-10 07:32:00,
2013-01-10 01:42:00,29.0,24.0,30.49,SSW,201,0.0,2.0,80,0.00,,,0.00,,2013-01-10 07:42:00,
2013-01-10 01:52:00,28.0,23.0,30.51,SSW,201,0.0,1.0,82,0.00,,,0.00,,2013-01-10 07:52:00,
2013-01-10 02:02:00,28.0,23.0,30.51,SSW,201,0.0,2.0,82,0.00,,,0.00,,2013-01-10 08:02:00,
2013-01-10 02:12:00,28.0,23.0,30.51,SSW,201,0.0,2.0,82,0.00,,,0.00,,2013-01-10 08:12:00,
2013-01-10 02:22:00,27.0,23.0,30.51,SSW,201,0.0,0.0,83,0.00,,,0.00,,2013-01-10 08:22:00,
2013-01-10 02:32:00,27.0,23.0,30.50,SSW,201,0.0,0.0,83,0.00,,,0.00,,2013-01-10 08:32:00,
2013-01-10 02:42:00,27.0,23.0,30.50,SSW,201,0.0,0.0,83,0.00,,,0.00,,2013-01-10 08:42:00,
2013-01-10 02:52:00,27.0,22.0,30.50,SSW,201,0.0,0.0,82,0.00,,,0.00,,2013-01-10 08:52:00,
2013-01-10 03:02:00,26.0,22.0,30.50,SSW,201,0.0,0.0,84,0.00,,,0.00,,2013-01-10 09:02:00,
2013-01-10 03:12:00,26.0,22.0,30.50,SSW,201,0.0,0.0,84,0.00,,,0.00,,2013-01-10 09:12:00,
2013-01-10 03:22:00,25.0,21.0,30.50,SSW,201,0.0,0.0,85,0.00,,,0.00,,2013-01-10 09:22:00,
2013-01-10 03:32:00,25.0,22.0,30.50,South,175,0.0,2.0,87,0.00,,,0.00,,2013-01-10 09:32:00,
2013-01-10 03:42:00,25.0,22.0,30.50,South,175,0.0,2.0,87,0.00,,,0.00,,2013-01-10 09:42:00,
2013-01-10 03:52:00,24.0,21.0,30.50,South,175,0.0,1.0,87,0.00,,,0.00,,2013-01-10 09:52:00,
2013-01-10 04:03:00,25.0,21.0,30.48,South,173,0.0,2.0,86,0.00,,,0.00,,2013-01-10 10:03:00,
2013-01-10 04:12:00,25.0,21.0,30.48,South,173,0.0,2.0,86,0.00,,,0.00,,2013-01-10 10:12:00,
2013-01-10 04:22:00,25.0,21.0,30.48,South,173,0.0,1.0,85,0.00,,,0.00,,2013-01-10 10:22:00,
2013-01-10 04:32:00,25.0,21.0,30.48,South,173,0.0,2.0,85,0.00,,,0.00,,2013-01-10 10:32:00,
2013-01-10 04:42:00,25.0,21.0,30.48,South,173,0.0,2.0,85,0.00,,,0.00,,2013-01-10 10:42:00,
2013-01-10 04:52:00,25.0,21.0,30.48,South,173,0.0,1.0,85,0.00,,,0.00,,2013-01-10 10:52:00,
2013-01-10 05:02:00,24.0,20.0,30.48,South,173,0.0,0.0,85,0.00,,,0.00,,2013-01-10 11:02:00,
2013-01-10 05:12:00,24.0,20.0,30.48,South,173,0.0,0.0,85,0.00,,,0.00,,2013-01-10 11:12:00,
2013-01-10 05:22:00,24.0,21.0,30.48,South,173,0.0,0.0,87,0.00,,,0.00,,2013-01-10 11:22:00,
2013-01-10 05:32:00,25.0,22.0,30.48,South,173,0.0,0.0,87,0.00,,,0.00,,2013-01-10 11:32:00,
2013-01-10 05:42:00,25.0,22.0,30.48,South,173,0.0,0.0,87,0.00,,,0.00,,2013-01-10 11:42:00,
2013-01-10 05:52:00,25.0,21.0,30.48,South,173,0.0,0.0,86,0.00,,,0.00,,2013-01-10 11:52:00,
2013-01-10 06:03:00,26.0,22.0,30.48,SE,124,1.0,5.0,86,0.00,,,0.00,,2013-01-10 12:03:00,
2013-01-10 06:12:00,26.0,22.0,30.48,SE,124,1.0,5.0,86,0.00,,,0.00,,2013-01-10 12:12:00,
2013-01-10 06:22:00,26.0,22.0,30.47,ESE,105,2.0,7.0,85,0.00,,,0.00,,2013-01-10 12:22:00,
2013-01-10 06:33:00,26.0,22.0,30.47,ESE,105,2.0,6.0,85,0.00,,,0.00,,2013-01-10 12:33:00,
2013-01-10 06:42:00,26.0,22.0,30.47,ESE,105,2.0,6.0,85,0.00,,,0.00,,2013-01-10 12:42:00,
2013-01-10 08:33:00,28.0,24.0,30.45,East,101,2.0,5.0,83,0.00,,,0.00,,2013-01-10 14:33:00,
2013-01-10 08:43:00,28.0,24.0,30.45,East,101,2.0,5.0,83,0.00,,,0.00,,2013-01-10 14:43:00,
2013-01-10 08:53:00,29.0,24.0,30.45,ESE,105,2.0,5.0,82,0.00,,,0.00,,2013-01-10 14:53:00,
2013-01-10 09:03:00,30.0,25.0,30.43,SE,130,1.0,7.0,81,0.00,,,0.00,,2013-01-10 15:03:00,
2013-01-10 09:12:00,30.0,25.0,30.43,SE,130,1.0,7.0,81,0.00,,,0.00,,2013-01-10 15:12:00,
2013-01-10 09:22:00,31.0,26.0,30.43,ESE,106,3.0,7.0,80,0.00,,,0.00,,2013-01-10 15:22:00,
2013-01-10 09:33:00,32.0,26.0,30.42,East,93,6.0,10.0,79,0.00,,,0.00,,2013-01-10 15:33:00,
2013-01-10 09:43:00,32.0,26.0,30.42,East,93,6.0,10.0,79,0.00,,,0.00,,2013-01-10 15:43:00,
2013-01-10 09:53:00,33.0,27.0,30.42,ESE,116,7.0,11.0,79,0.00,,,0.00,,2013-01-10 15:53:00,
2013-01-10 10:02:00,33.0,27.0,30.42,SE,128,7.0,13.0,78,0.00,,,0.00,,2013-01-10 16:02:00,
2013-01-10 10:13:00,33.0,27.0,30.42,SE,128,7.0,13.0,78,0.00,,,0.00,,2013-01-10 16:13:00,
2013-01-10 10:23:00,33.0,27.0,30.41,ESE,111,5.0,9.0,78,0.00,,,0.00,,2013-01-10 16:23:00,
2013-01-10 10:33:00,34.0,28.0,30.40,East,94,5.0,9.0,78,0.00,,,0.00,,2013-01-10 16:33:00,
2013-01-10 10:43:00,34.0,28.0,30.40,East,94,5.0,9.0,78,0.00,,,0.00,,2013-01-10 16:43:00,
2013-01-10 10:52:00,34.0,28.0,30.39,ESE,109,5.0,10.0,77,0.00,,,0.00,,2013-01-10 16:52:00,
2013-01-10 11:03:00,35.0,29.0,30.38,ESE,103,5.0,12.0,77,0.00,,,0.00,,2013-01-10 17:03:00,
2013-01-10 11:12:00,35.0,29.0,30.38,ESE,103,5.0,12.0,77,0.00,,,0.00,,2013-01-10 17:12:00,
2013-01-10 11:22:00,36.0,29.0,30.36,ESE,110,6.0,11.0,75,0.00,,,0.00,,2013-01-10 17:22:00,
2013-01-10 11:33:00,36.0,29.0,30.36,ESE,110,6.0,11.0,75,0.00,,,0.00,,2013-01-10 17:33:00,
2013-01-10 11:42:00,36.0,29.0,30.36,ESE,110,6.0,11.0,75,0.00,,,0.00,,2013-01-10 17:42:00,
2013-01-10 11:53:00,38.0,28.0,30.33,East,95,10.0,15.0,68,0.00,,,0.00,,2013-01-10 17:53:00,
2013-01-10 12:03:00,39.0,29.0,30.32,SE,126,9.0,15.0,66,0.00,,,0.00,,2013-01-10 18:03:00,
2013-01-10 12:12:00,39.0,29.0,30.32,SE,126,9.0,15.0,66,0.00,,,0.00,,2013-01-10 18:12:00,
2013-01-10 12:23:00,40.0,29.0,30.30,ESE,108,7.0,14.0,65,0.00,,,0.00,,2013-01-10 18:23:00,
2013-01-10 12:33:00,41.0,30.0,30.29,ESE,106,8.0,14.0,64,0.00,,,0.00,,2013-01-10 18:33:00,
2013-01-10 12:43:00,40.0,29.0,30.28,ESE,113,8.0,16.0,64,0.00,,,0.00,,2013-01-10 18:43:00,
2013-01-10 12:52:00,40.0,29.0,30.28,ESE,113,8.0,16.0,64,0.00,,,0.00,,2013-01-10 18:52:00,
2013-01-10 13:03:00,40.0,29.0,30.26,East,84,8.0,16.0,65,0.00,,,0.00,,2013-01-10 19:03:00,
2013-01-10 13:13:00,41.0,30.0,30.24,SE,126,8.0,15.0,64,0.00,,,0.00,,2013-01-10 19:13:00,
2013-01-10 13:23:00,41.0,30.0,30.24,SE,126,8.0,15.0,64,0.00,,,0.00,,2013-01-10 19:23:00,
2013-01-10 13:33:00,42.0,29.0,30.24,SE,134,9.0,14.0,60,0.00,,,0.00,,2013-01-10 19:33:00,
2013-01-10 13:43:00,42.0,29.0,30.24,SE,134,9.0,14.0,60,0.00,,,0.00,,2013-01-10 19:43:00,
2013-01-10 13:52:00,43.0,28.0,30.22,ESE,103,9.0,19.0,54,0.00,,,0.00,,2013-01-10 19:52:00,
2013-01-10 14:03:00,43.0,28.0,30.21,ESE,123,8.0,16.0,54,0.00,,,0.00,,2013-01-10 20:03:00,
2013-01-10 14:12:00,43.0,28.0,30.21,ESE,123,8.0,16.0,54,0.00,,,0.00,,2013-01-10 20:12:00,
2013-01-10 14:24:00,43.0,27.0,30.21,ESE,121,11.0,15.0,53,0.00,,,0.00,,2013-01-10 20:24:00,
2013-01-10 14:33:00,42.0,28.0,30.21,ESE,119,9.0,14.0,58,0.00,,,0.00,,2013-01-10 20:33:00,
2013-01-10 14:43:00,42.0,28.0,30.21,ESE,119,9.0,14.0,58,0.00,,,0.00,,2013-01-10 20:43:00,
2013-01-10 14:53:00,41.0,29.0,30.21,ESE,123,7.0,17.0,63,0.00,,,0.00,,2013-01-10 20:53:00,
2013-01-10 15:03:00,41.0,30.0,30.20,East,96,7.0,14.0,64,0.00,,,0.00,,2013-01-10 21:03:00,
2013-01-10 15:12:00,41.0,30.0,30.20,East,96,7.0,14.0,64,0.00,,,0.00,,2013-01-10 21:12:00,
2013-01-10 15:23:00,41.0,30.0,30.19,SE,134,9.0,15.0,65,0.00,,,0.00,,2013-01-10 21:23:00,
2013-01-10 15:33:00,41.0,30.0,30.19,SE,129,6.0,13.0,65,0.00,,,0.00,,2013-01-10 21:33:00,
2013-01-10 15:42:00,41.0,30.0,30.19,SE,129,6.0,13.0,65,0.00,,,0.00,,2013-01-10 21:42:00,
2013-01-10 15:53:00,41.0,30.0,30.17,SE,132,8.0,16.0,64,0.00,,,0.00,,2013-01-10 21:53:00,
2013-01-10 16:03:00,41.0,30.0,30.17,SE,131,9.0,17.0,64,0.00,,,0.00,,2013-01-10 22:03:00,
2013-01-10 16:12:00,40.0,30.0,30.16,ESE,122,10.0,17.0,67,0.00,,,0.00,,2013-01-10 22:12:00,
2013-01-10 16:25:00,40.0,30.0,30.16,ESE,122,10.0,17.0,67,0.00,,,0.00,,2013-01-10 22:25:00,
2013-01-10 16:33:00,40.0,30.0,30.15,ESE,108,10.0,15.0,68,0.00,,,0.00,,2013-01-10 22:33:00,
2013-01-10 16:43:00,40.0,30.0,30.15,ESE,108,10.0,15.0,68,0.00,,,0.00,,2013-01-10 22:43:00,
2013-01-10 17:02:00,37.0,33.0,30.14,SE,130,10.0,15.0,84,0.02,,,0.02,,2013-01-10 23:02:00,
2013-01-10 17:12:00,37.0,33.0,30.14,SE,130,10.0,15.0,84,0.02,,,0.02,,2013-01-10 23:12:00,
2013-01-10 17:23:00,37.0,34.0,30.12,ESE,121,10.0,16.0,88,0.05,,,0.05,,2013-01-10 23:23:00,
2013-01-10 17:33:00,36.0,33.0,30.13,ESE,107,9.0,17.0,90,0.07,,,0.07,,2013-01-10 23:33:00,
2013-01-10 17:43:00,36.0,33.0,30.13,ESE,107,9.0,17.0,90,0.07,,,0.07,,2013-01-10 23:43:00,
2013-01-10 17:53:00,36.0,34.0,30.12,ESE,115,9.0,16.0,92,0.10,,,0.11,,2013-01-10 23:53:00,
2013-01-10 18:03:00,35.0,33.0,30.11,ESE,112,11.0,17.0,93,0.09,,,0.12,,2013-01-11 00:03:00,
2013-01-10 18:12:00,35.0,33.0,30.11,ESE,112,11.0,17.0,93,0.09,,,0.12,,2013-01-11 00:12:00,
2013-01-10 18:23:00,35.0,33.0,30.10,SE,125,10.0,17.0,94,0.09,,,0.14,,2013-01-11 00:23:00,
2013-01-10 18:33:00,35.0,33.0,30.09,SE,128,11.0,15.0,94,0.07,,,0.14,,2013-01-11 00:33:00,
2013-01-10 18:42:00,35.0,33.0,30.09,SE,128,11.0,15.0,94,0.07,,,0.14,,2013-01-11 00:42:00,
2013-01-10 18:52:00,35.0,33.0,30.08,ESE,120,9.0,16.0,94,0.03,,,0.14,,2013-01-11 00:52:00,
2013-01-10 19:03:00,35.0,34.0,30.07,ESE,123,10.0,16.0,95,0.03,,,0.16,,2013-01-11 01:03:00,
2013-01-10 19:13:00,35.0,34.0,30.06,East,101,8.0,16.0,95,0.03,,,0.17,,2013-01-11 01:13:00,
2013-01-10 19:23:00,35.0,34.0,30.06,East,101,8.0,16.0,95,0.03,,,0.17,,2013-01-11 01:23:00,
2013-01-10 19:33:00,35.0,34.0,30.06,East,94,9.0,15.0,95,0.03,,,0.17,,2013-01-11 01:33:00,
2013-01-10 19:43:00,35.0,34.0,30.06,East,94,9.0,15.0,95,0.03,,,0.17,,2013-01-11 01:43:00,
2013-01-10 19:52:00,35.0,34.0,30.04,ESE,120,8.0,13.0,95,0.04,,,0.18,,2013-01-11 01:52:00,
2013-01-10 20:03:00,36.0,35.0,30.03,East,85,7.0,14.0,96,0.02,,,0.18,,2013-01-11 02:03:00,
2013-01-10 20:13:00,36.0,35.0,30.03,East,85,7.0,14.0,96,0.02,,,0.18,,2013-01-11 02:13:00,
2013-01-10 20:23:00,36.0,35.0,30.02,East,91,8.0,14.0,96,0.03,,,0.20,,2013-01-11 02:23:00,
2013-01-10 20:33:00,36.0,35.0,30.01,SE,131,8.0,14.0,96,0.03,,,0.20,,2013-01-11 02:33:00,
2013-01-10 20:43:00,36.0,35.0,30.01,SE,131,8.0,14.0,96,0.03,,,0.20,,2013-01-11 02:43:00,
2013-01-10 20:53:00,36.0,35.0,30.00,East,92,7.0,12.0,96,0.02,,,0.20,,2013-01-11 02:53:00,
2013-01-10 21:02:00,36.0,35.0,29.98,East,101,6.0,11.0,96,0.04,,,0.22,,2013-01-11 03:02:00,
2013-01-10 21:12:00,36.0,35.0,29.98,East,101,6.0,11.0,96,0.04,,,0.22,,2013-01-11 03:12:00,
2013-01-10 21:23:00,36.0,35.0,29.99,SE,130,8.0,13.0,96,0.05,,,0.25,,2013-01-11 03:23:00,
2013-01-10 21:33:00,37.0,36.0,29.98,ESE,102,7.0,13.0,97,0.15,,,0.35,,2013-01-11 03:33:00,
2013-01-10 21:43:00,37.0,36.0,29.98,ESE,102,7.0,13.0,97,0.15,,,0.35,,2013-01-11 03:43:00,
2013-01-10 21:53:00,37.0,36.0,29.98,East,96,7.0,11.0,97,0.24,,,0.44,,2013-01-11 03:53:00,
2013-01-10 22:02:00,37.0,36.0,29.96,ESE,103,6.0,13.0,97,0.30,,,0.52,,2013-01-11 04:02:00,
2013-01-10 22:12:00,37.0,36.0,29.96,ESE,103,6.0,13.0,97,0.30,,,0.52,,2013-01-11 04:12:00,
2013-01-10 22:22:00,37.0,36.0,29.95,SE,126,7.0,11.0,97,0.30,,,0.56,,2013-01-11 04:22:00,
2013-01-10 22:33:00,37.0,36.0,29.94,SE,125,7.0,11.0,97,0.21,,,0.56,,2013-01-11 04:33:00,
2013-01-10 22:42:00,37.0,36.0,29.94,SE,125,7.0,11.0,97,0.21,,,0.56,,2013-01-11 04:42:00,
2013-01-10 22:52:00,37.0,36.0,29.93,ESE,102,9.0,14.0,97,0.13,,,0.56,,2013-01-11 04:52:00,
2013-01-10 23:03:00,38.0,37.0,29.92,SE,126,8.0,13.0,97,0.06,,,0.57,,2013-01-11 05:03:00,
2013-01-10 23:12:00,38.0,37.0,29.92,SE,126,8.0,13.0,97,0.06,,,0.57,,2013-01-11 05:12:00,
2013-01-10 23:22:00,38.0,37.0,29.91,ESE,107,8.0,12.0,97,0.02,,,0.57,,2013-01-11 05:22:00,
2013-01-10 23:33:00,39.0,38.0,29.90,SE,124,8.0,14.0,97,0.03,,,0.60,,2013-01-11 05:33:00,
2013-01-10 23:42:00,39.0,38.0,29.90,SE,124,8.0,14.0,97,0.03,,,0.60,,2013-01-11 05:42:00,
2013-01-10 23:52:00,39.0,38.0,29.89,East,93,8.0,12.0,97,0.05,,,0.62,,2013-01-11 05:52:00,